KJCT

Kimble County Airport

Junction, Texas, USA
KJCT 171120Z 1712/1812 30006KT P6SM OVC250 FM180000 10003KT P6SM SKC
Issued Valid From Valid To
Dec-17 @ 11:20 UTC
(an hour ago)
Dec-17 @ 12:00 UTC
(49 minutes ago)
Dec-18 @ 12:00 UTC
(in 23 hours)
Dec-17 @ 12:00 to Dec-18 @ 00:00
KJCT 171120Z 1712/1812 30006KT P6SM OVC250
Wind Visibility Clouds
300° at 6 knots Greater than 6 miles
  • Overcast at 25,000' AGL
From Dec-18 @ 00:00 to Dec-18 @ 12:00
FM180000 10003KT P6SM SKC
Wind Visibility Clouds
100° at 3 knots Greater than 6 miles
  • Clear skies
KJCT 171120Z 1712/1812 30006KT P6SM OVC250 FM180000 10003KT P6SM SKC
Issued Dec-17 @ 11:20 UTC
(an hour ago)
Valid From Dec-17 @ 12:00 UTC
(49 minutes ago)
Valid To Dec-18 @ 12:00 UTC
(in 23 hours)
Dec-17 @ 12:00 - Dec-18 @ 00:00
Wind Visibility
300° at 6 knots Greater than 6 miles
Clouds
  • Overcast at 25,000' AGL
From Dec-18 @ 00:00 - Dec-18 @ 12:00
Wind Visibility
100° at 3 knots Greater than 6 miles
Clouds
  • Clear skies